createdAt,value
2018-06-18T00:01:47.767Z,101547.41
2018-06-18T00:04:14.663Z,101545.65
2018-06-18T00:06:41.595Z,101542.66
2018-06-18T00:09:09.831Z,101544.81
2018-06-18T00:11:36.723Z,101545.36
2018-06-18T00:14:03.724Z,101541.13
2018-06-18T00:16:30.638Z,101542.44
2018-06-18T00:18:57.524Z,101538.80
2018-06-18T00:21:24.418Z,101533.52
2018-06-18T00:23:51.340Z,101532.55
2018-06-18T00:26:18.447Z,101533.39
2018-06-18T00:28:45.391Z,101535.39
2018-06-18T00:31:12.287Z,101535.88
2018-06-18T00:33:39.207Z,101540.32
2018-06-18T00:36:06.131Z,101532.88
2018-06-18T00:38:33.031Z,101532.88
2018-06-18T00:40:59.938Z,101529.91
2018-06-18T00:43:26.918Z,101533.52
2018-06-18T00:45:53.846Z,101531.03
2018-06-18T00:48:20.768Z,101528.52
2018-06-18T00:50:47.759Z,101535.64
2018-06-18T00:53:14.715Z,101537.72
2018-06-18T00:55:53.198Z,101536.05
2018-06-18T00:58:20.123Z,101535.08
2018-06-18T01:00:47.650Z,101532.64
2018-06-18T01:03:14.705Z,101529.80
2018-06-18T01:05:41.650Z,101535.44
2018-06-18T01:08:08.602Z,101535.56
2018-06-18T01:10:35.498Z,101534.24
2018-06-18T01:13:02.434Z,101540.01
2018-06-18T01:15:29.339Z,101544.97
2018-06-18T01:17:56.255Z,101539.20
2018-06-18T01:20:23.299Z,101543.97
2018-06-18T01:22:59.391Z,101549.25
2018-06-18T01:25:26.289Z,101536.69
2018-06-18T01:27:53.260Z,101533.20
2018-06-18T01:30:20.203Z,101532.40
2018-06-18T01:32:47.135Z,101527.23
2018-06-18T01:35:14.040Z,101514.31
2018-06-18T01:37:41.023Z,101512.19
2018-06-18T01:40:07.907Z,101515.23
2018-06-18T01:42:35.150Z,101494.70
2018-06-18T01:45:02.615Z,101498.46
2018-06-18T01:47:29.543Z,101499.73
2018-06-18T01:49:56.439Z,101499.66
2018-06-18T01:52:23.343Z,101497.94
2018-06-18T01:54:50.307Z,101502.19
2018-06-18T01:57:17.221Z,101508.10
2018-06-18T01:59:44.158Z,101500.82
2018-06-18T02:02:11.035Z,101508.73
2018-06-18T02:04:37.952Z,101510.70
2018-06-18T02:07:04.862Z,101518.26
2018-06-18T02:09:31.758Z,101522.02
2018-06-18T02:11:58.736Z,101526.45
2018-06-18T02:14:25.647Z,101529.94
2018-06-18T02:16:52.555Z,101527.45
2018-06-18T02:19:19.544Z,101526.13
2018-06-18T02:21:46.548Z,101519.05
2018-06-18T02:24:13.479Z,101518.05
2018-06-18T02:26:40.423Z,101522.02
2018-06-18T02:29:13.276Z,101521.53
2018-06-18T02:31:46.796Z,101518.33
2018-06-18T02:35:19.875Z,101511.41
2018-06-18T02:37:52.499Z,101520.44
2018-06-18T02:40:25.278Z,101524.73
2018-06-18T02:42:52.188Z,101521.77
2018-06-18T02:45:19.120Z,101515.84
2018-06-18T02:47:46.025Z,101518.84
2018-06-18T02:50:13.023Z,101524.45
2018-06-18T02:52:39.987Z,101522.50
2018-06-18T02:55:06.954Z,101522.50
2018-06-18T02:57:34.146Z,101522.17
2018-06-18T03:00:01.046Z,101517.53
2018-06-18T03:02:27.967Z,101520.44
2018-06-18T03:04:54.912Z,101525.04
2018-06-18T03:07:21.807Z,101523.56
2018-06-18T03:09:48.744Z,101520.09
2018-06-18T03:12:15.655Z,101512.38
2018-06-18T03:14:42.602Z,101520.17
2018-06-18T03:17:09.499Z,101515.77
2018-06-18T03:19:42.372Z,101522.78
2018-06-18T03:22:15.054Z,101515.55
2018-06-18T03:24:47.851Z,101511.94
2018-06-18T03:27:20.511Z,101512.42
2018-06-18T03:29:47.422Z,101513.11
2018-06-18T03:32:16.267Z,101521.59
2018-06-18T03:34:43.270Z,101515.47
2018-06-18T03:37:12.496Z,101515.47
2018-06-18T03:39:39.381Z,101519.42
2018-06-18T03:42:06.709Z,101521.43
2018-06-18T03:44:37.218Z,101516.15
2018-06-18T03:47:13.139Z,101518.79
2018-06-18T03:49:40.295Z,101534.99
2018-06-18T03:52:07.211Z,101529.20
2018-06-18T03:54:34.114Z,101536.52
2018-06-18T03:57:01.144Z,101540.16
2018-06-18T03:59:28.130Z,101542.68
2018-06-18T04:02:03.427Z,101531.44
2018-06-18T04:04:47.211Z,101540.80
2018-06-18T04:07:21.687Z,101529.91
2018-06-18T04:09:54.267Z,101531.28
2018-06-18T04:12:21.260Z,101526.68
2018-06-18T04:14:48.340Z,101513.67
2018-06-18T04:17:15.254Z,101520.95
2018-06-18T04:19:42.143Z,101517.48
2018-06-18T04:22:09.159Z,101517.20
2018-06-18T04:24:36.138Z,101521.55
2018-06-18T04:27:03.160Z,101534.64
2018-06-18T04:29:30.306Z,101543.45
2018-06-18T04:31:57.203Z,101542.66
2018-06-18T04:34:34.475Z,101528.67
2018-06-18T04:37:01.407Z,101541.92
2018-06-18T04:39:28.664Z,101528.91
2018-06-18T04:42:01.239Z,101533.98
2018-06-18T04:44:34.012Z,101537.44
2018-06-18T04:47:06.753Z,101537.70
2018-06-18T04:49:39.337Z,101537.38
2018-06-18T04:52:06.262Z,101544.70
2018-06-18T04:54:33.166Z,101548.22
2018-06-18T04:57:00.838Z,101547.12
2018-06-18T04:59:27.738Z,101546.84
2018-06-18T05:01:54.682Z,101545.55
2018-06-18T05:04:21.555Z,101544.62
2018-06-18T05:06:48.494Z,101545.98
2018-06-18T05:09:41.439Z,101551.72
2018-06-18T05:12:08.355Z,101550.81
2018-06-18T05:14:35.238Z,101548.20
2018-06-18T05:17:02.367Z,101544.30
2018-06-18T05:19:29.339Z,101539.19
2018-06-18T05:21:56.239Z,101520.70
2018-06-18T05:24:23.131Z,101515.66
2018-06-18T05:26:51.886Z,101506.06
2018-06-18T05:29:20.246Z,101494.81
2018-06-18T05:31:47.262Z,101495.44
2018-06-18T05:34:16.787Z,101508.90
2018-06-18T05:36:43.754Z,101508.20
2018-06-18T05:39:10.674Z,101507.98
2018-06-18T05:41:37.610Z,101507.78
2018-06-18T05:44:04.499Z,101512.14
2018-06-18T05:46:31.411Z,101513.58
2018-06-18T05:48:58.335Z,101522.21
2018-06-18T05:51:25.243Z,101528.06
2018-06-18T05:53:52.159Z,101542.81
2018-06-18T05:56:19.087Z,101545.42
2018-06-18T05:58:45.998Z,101547.66
2018-06-18T06:01:13.143Z,101547.27
2018-06-18T06:03:40.134Z,101546.31
2018-06-18T06:06:07.040Z,101543.70
2018-06-18T06:08:34.013Z,101542.07
2018-06-18T06:11:00.943Z,101540.70
2018-06-18T06:13:27.930Z,101532.08
2018-06-18T06:15:54.827Z,101544.67
2018-06-18T06:18:21.740Z,101548.30
2018-06-18T06:20:54.987Z,101543.78
2018-06-18T06:23:21.919Z,101542.34
2018-06-18T06:25:49.376Z,101538.57
2018-06-18T06:28:16.307Z,101552.52
2018-06-18T06:30:43.215Z,101546.43
2018-06-18T06:33:10.127Z,101550.08
2018-06-18T06:35:38.836Z,101557.56
2018-06-18T06:38:05.770Z,101550.27
2018-06-18T06:40:32.732Z,101555.73
2018-06-18T06:42:59.776Z,101561.27
2018-06-18T06:45:26.670Z,101555.45
2018-06-18T06:47:53.600Z,101560.59
2018-06-18T06:50:20.503Z,101561.08
2018-06-18T06:52:47.411Z,101569.73
2018-06-18T06:55:14.298Z,101570.55
2018-06-18T06:57:41.213Z,101561.89
2018-06-18T07:00:08.100Z,101562.56
2018-06-18T07:02:34.987Z,101567.87
2018-06-18T07:05:02.088Z,101569.83
2018-06-18T07:07:28.994Z,101570.97
2018-06-18T07:09:55.936Z,101568.16
2018-06-18T07:12:22.855Z,101570.80
2018-06-18T07:14:49.756Z,101559.69
2018-06-18T07:17:16.674Z,101553.22
2018-06-18T07:19:43.654Z,101550.57
2018-06-18T07:22:10.551Z,101546.60
2018-06-18T07:24:37.448Z,101545.07
2018-06-18T07:27:04.438Z,101549.38
2018-06-18T07:29:31.371Z,101548.54
2018-06-18T07:31:58.556Z,101542.88
2018-06-18T07:34:25.443Z,101538.55
2018-06-18T07:36:52.658Z,101546.55
2018-06-18T07:39:19.562Z,101545.39
2018-06-18T07:41:46.467Z,101546.23
2018-06-18T07:44:13.447Z,101547.38
2018-06-18T07:46:40.347Z,101537.06
2018-06-18T07:49:07.259Z,101539.55
2018-06-18T07:51:34.217Z,101535.56
2018-06-18T07:54:01.088Z,101535.19
2018-06-18T07:56:28.018Z,101534.75
2018-06-18T07:58:54.926Z,101545.70
2018-06-18T08:01:21.855Z,101548.52
2018-06-18T08:03:48.766Z,101534.70
2018-06-18T08:06:15.651Z,101526.52
2018-06-18T08:08:42.639Z,101533.41
2018-06-18T08:11:09.518Z,101532.02
2018-06-18T08:13:36.419Z,101528.13
2018-06-18T08:16:03.305Z,101530.86
2018-06-18T08:18:30.224Z,101523.89
2018-06-18T08:20:57.127Z,101524.72
2018-06-18T08:23:24.375Z,101524.11
2018-06-18T08:25:51.363Z,101526.30
2018-06-18T08:28:18.307Z,101513.23
2018-06-18T08:30:45.191Z,101507.23
2018-06-18T08:33:12.083Z,101512.83
2018-06-18T08:35:38.971Z,101512.78
2018-06-18T08:38:05.879Z,101514.75
2018-06-18T08:40:32.817Z,101525.33
2018-06-18T08:42:59.872Z,101520.95
2018-06-18T08:45:26.775Z,101525.19
2018-06-18T08:47:53.722Z,101520.41
2018-06-18T08:50:26.323Z,101522.36
2018-06-18T08:52:58.940Z,101520.55
2018-06-18T08:57:33.123Z,101517.72
2018-06-18T09:00:05.823Z,101517.06
2018-06-18T09:02:33.142Z,101519.21
2018-06-18T09:05:05.880Z,101518.55
2018-06-18T09:07:37.414Z,101514.67
2018-06-18T09:10:04.708Z,101518.94
2018-06-18T09:12:31.600Z,101529.97
2018-06-18T09:14:58.483Z,101533.20
2018-06-18T09:17:25.401Z,101527.61
2018-06-18T09:19:52.296Z,101532.30
2018-06-18T09:22:19.186Z,101533.50
2018-06-18T09:24:46.071Z,101534.83
2018-06-18T09:27:14.027Z,101542.80
2018-06-18T09:29:46.547Z,101542.97
2018-06-18T09:32:13.902Z,101544.91
2018-06-18T09:34:41.171Z,101538.82
2018-06-18T09:37:08.325Z,101544.03
2018-06-18T09:39:35.275Z,101552.03
2018-06-18T09:42:02.845Z,101550.42
2018-06-18T09:44:29.747Z,101544.50
2018-06-18T09:46:57.259Z,101537.41
2018-06-18T09:51:31.516Z,101529.33
2018-06-18T09:54:04.032Z,101533.91
2018-06-18T09:56:36.663Z,101529.86
2018-06-18T09:59:09.514Z,101535.08
2018-06-18T10:01:36.570Z,101529.73
2018-06-18T10:04:04.195Z,101527.83
2018-06-18T10:06:34.198Z,101528.31
2018-06-18T10:09:05.135Z,101534.95
2018-06-18T10:11:32.544Z,101539.56
2018-06-18T10:13:59.456Z,101540.08
2018-06-18T10:16:26.400Z,101541.80
2018-06-18T10:18:53.768Z,101542.22
2018-06-18T10:21:20.659Z,101549.32
2018-06-18T10:23:47.594Z,101545.02
2018-06-18T10:26:14.488Z,101543.44
2018-06-18T10:28:41.503Z,101553.95
2018-06-18T10:31:08.516Z,101546.41
2018-06-18T10:33:41.256Z,101544.28
2018-06-18T10:38:21.478Z,101547.68
2018-06-18T10:40:54.194Z,101543.52
2018-06-18T10:43:24.275Z,101546.27
2018-06-18T10:45:51.286Z,101541.75
2018-06-18T10:48:18.383Z,101537.47
2018-06-18T10:50:45.298Z,101546.34
2018-06-18T10:53:12.219Z,101545.87
2018-06-18T10:55:39.123Z,101552.94
2018-06-18T10:58:06.052Z,101556.05
2018-06-18T11:00:32.939Z,101556.55
2018-06-18T11:02:59.865Z,101559.80
2018-06-18T11:05:32.631Z,101559.73
2018-06-18T11:07:59.507Z,101558.12
2018-06-18T11:10:26.397Z,101560.95
2018-06-18T11:12:53.654Z,101559.75
2018-06-18T11:15:20.595Z,101556.70
2018-06-18T11:17:53.156Z,101556.91
2018-06-18T11:20:25.692Z,101557.95
2018-06-18T11:22:58.294Z,101563.77
2018-06-18T11:25:30.735Z,101568.22
2018-06-18T11:27:57.679Z,101558.94
2018-06-18T11:30:24.579Z,101561.39
2018-06-18T11:32:51.498Z,101558.92
2018-06-18T11:35:18.391Z,101559.48
2018-06-18T11:37:45.281Z,101559.88
2018-06-18T11:40:12.192Z,101559.73
2018-06-18T11:42:39.114Z,101558.73
2018-06-18T11:45:06.044Z,101556.69
2018-06-18T11:47:33.013Z,101554.79
2018-06-18T11:50:00.436Z,101551.03
2018-06-18T11:52:27.394Z,101550.41
2018-06-18T11:54:54.375Z,101539.52
2018-06-18T11:57:21.294Z,101545.27
2018-06-18T11:59:53.983Z,101542.38
2018-06-18T12:02:26.503Z,101546.10
2018-06-18T12:04:59.287Z,101543.72
2018-06-18T12:07:31.814Z,101543.59
2018-06-18T12:09:58.748Z,101550.57
2018-06-18T12:12:25.638Z,101541.91
2018-06-18T12:14:52.552Z,101541.77
2018-06-18T12:17:19.447Z,101538.42
2018-06-18T12:19:46.331Z,101549.06
2018-06-18T12:22:13.299Z,101547.00
2018-06-18T12:24:40.194Z,101543.23
2018-06-18T12:27:08.403Z,101538.09
2018-06-18T12:29:35.294Z,101539.43
2018-06-18T12:32:02.231Z,101541.08
2018-06-18T12:34:29.163Z,101546.44
2018-06-18T12:36:56.113Z,101546.89
2018-06-18T12:39:23.016Z,101550.14
2018-06-18T12:41:54.499Z,101543.30
2018-06-18T12:44:21.382Z,101535.08
2018-06-18T12:46:54.218Z,101532.41
2018-06-18T12:49:27.790Z,101531.22
2018-06-18T12:52:00.514Z,101531.77
2018-06-18T12:54:33.227Z,101532.75
2018-06-18T12:57:02.876Z,101529.15
2018-06-18T12:59:29.792Z,101530.27
2018-06-18T13:02:01.787Z,101526.12
2018-06-18T13:04:30.592Z,101525.86
2018-06-18T13:06:57.571Z,101525.73
2018-06-18T13:09:24.473Z,101519.09
2018-06-18T13:11:51.708Z,101519.08
2018-06-18T13:14:18.599Z,101523.87
2018-06-18T13:16:45.538Z,101517.71
2018-06-18T13:19:12.482Z,101514.09
2018-06-18T13:21:39.415Z,101513.08
2018-06-18T13:24:06.330Z,101525.91
2018-06-18T13:26:33.267Z,101521.94
2018-06-18T13:29:00.181Z,101511.92
2018-06-18T13:31:27.090Z,101511.23
2018-06-18T13:33:53.983Z,101520.00
2018-06-18T13:36:20.916Z,101515.25
2018-06-18T13:38:53.631Z,101515.79
2018-06-18T13:41:26.396Z,101519.99
2018-06-18T13:43:59.114Z,101526.16
2018-06-18T13:46:31.853Z,101524.91
2018-06-18T13:48:58.747Z,101521.41
2018-06-18T13:51:26.597Z,101527.34
2018-06-18T13:53:53.699Z,101523.61
2018-06-18T13:56:20.630Z,101520.66
2018-06-18T13:58:47.577Z,101520.97
2018-06-18T14:01:14.495Z,101520.97
2018-06-18T14:03:41.874Z,101518.03
2018-06-18T14:06:08.975Z,101505.16
2018-06-18T14:08:35.869Z,101509.13
2018-06-18T14:11:02.798Z,101512.66
2018-06-18T14:13:30.016Z,101508.66
2018-06-18T14:15:57.896Z,101508.16
2018-06-18T14:18:24.830Z,101505.59
2018-06-18T14:20:51.670Z,101503.80
2018-06-18T14:23:18.591Z,101508.61
2018-06-18T14:25:45.495Z,101507.16
2018-06-18T14:28:12.435Z,101496.89
2018-06-18T14:30:44.936Z,101505.69
2018-06-18T14:33:17.715Z,101498.34
2018-06-18T14:35:50.335Z,101496.89
2018-06-18T14:38:23.055Z,101490.22
2018-06-18T14:40:49.986Z,101476.52
2018-06-18T14:43:16.927Z,101482.50
2018-06-18T14:45:43.851Z,101476.82
2018-06-18T14:48:10.756Z,101472.19
2018-06-18T14:50:37.642Z,101463.11
2018-06-18T14:53:04.751Z,101468.67
2018-06-18T14:55:31.647Z,101463.51
2018-06-18T14:57:58.587Z,101469.50
2018-06-18T15:00:28.228Z,101470.31
2018-06-18T15:02:55.319Z,101469.59
2018-06-18T15:05:23.553Z,101456.70
2018-06-18T15:07:50.491Z,101458.27
2018-06-18T15:10:17.416Z,101451.24
2018-06-18T15:12:49.166Z,101450.02
2018-06-18T15:15:21.988Z,101448.75
2018-06-18T15:17:49.483Z,101446.16
2018-06-18T15:20:16.463Z,101443.48
2018-06-18T15:22:47.850Z,101449.78
2018-06-18T15:25:15.139Z,101440.94
2018-06-18T15:27:41.991Z,101445.16
2018-06-18T15:30:09.006Z,101445.27
2018-06-18T15:32:35.902Z,101453.78
2018-06-18T15:35:02.826Z,101451.69
2018-06-18T15:37:29.747Z,101450.45
2018-06-18T15:39:56.648Z,101458.20
2018-06-18T15:42:23.567Z,101451.61
2018-06-18T15:44:50.470Z,101444.98
2018-06-18T15:47:17.555Z,101447.27
2018-06-18T15:49:44.467Z,101448.68
2018-06-18T15:52:11.351Z,101439.09
2018-06-18T15:54:38.272Z,101437.64
2018-06-18T15:57:05.254Z,101452.15
2018-06-18T15:59:32.107Z,101447.12
2018-06-18T16:01:59.936Z,101451.53
2018-06-18T16:04:26.811Z,101449.41
2018-06-18T16:06:53.715Z,101449.41
2018-06-18T16:09:20.659Z,101444.55
2018-06-18T16:11:47.556Z,101454.48
2018-06-18T16:14:14.464Z,101440.31
2018-06-18T16:16:41.348Z,101439.82
2018-06-18T16:19:08.299Z,101438.76
2018-06-18T16:21:35.273Z,101437.93
2018-06-18T16:24:02.183Z,101439.87
2018-06-18T16:26:29.058Z,101427.23
2018-06-18T16:28:56.130Z,101435.48
2018-06-18T16:31:23.027Z,101427.06
2018-06-18T16:33:50.917Z,101430.45
2018-06-18T16:36:17.773Z,101424.94
2018-06-18T16:38:44.718Z,101422.58
2018-06-18T16:41:11.619Z,101417.11
2018-06-18T16:43:38.580Z,101416.48
2018-06-18T16:46:05.780Z,101423.17
2018-06-18T16:48:32.696Z,101427.98
2018-06-18T16:50:59.652Z,101419.34
2018-06-18T16:53:26.671Z,101413.28
2018-06-18T16:55:53.620Z,101417.83
2018-06-18T16:58:20.540Z,101418.73
2018-06-18T17:00:47.502Z,101409.38
2018-06-18T17:03:14.395Z,101405.19
2018-06-18T17:05:41.295Z,101405.59
2018-06-18T17:08:08.187Z,101414.35
2018-06-18T17:10:35.088Z,101411.22
2018-06-18T17:13:01.978Z,101415.02
2018-06-18T17:15:28.890Z,101416.24
2018-06-18T17:17:55.831Z,101418.58
2018-06-18T17:20:22.763Z,101407.42
2018-06-18T17:22:50.311Z,101417.19
2018-06-18T17:25:17.211Z,101423.75
2018-06-18T17:27:44.088Z,101423.00
2018-06-18T17:30:11.135Z,101429.82
2018-06-18T17:32:38.114Z,101433.58
2018-06-18T17:35:05.055Z,101429.98
2018-06-18T17:37:31.963Z,101434.88
2018-06-18T17:39:58.872Z,101419.44
2018-06-18T17:42:25.759Z,101422.28
2018-06-18T17:44:52.660Z,101420.52
2018-06-18T17:47:19.550Z,101420.63
2018-06-18T17:49:46.575Z,101416.92
2018-06-18T17:52:13.531Z,101413.24
2018-06-18T17:54:40.438Z,101413.50
2018-06-18T17:57:07.576Z,101423.27
2018-06-18T17:59:34.547Z,101408.96
2018-06-18T18:02:01.429Z,101414.80
2018-06-18T18:04:28.327Z,101411.12
2018-06-18T18:06:55.258Z,101412.38
2018-06-18T18:09:22.166Z,101420.33
2018-06-18T18:11:49.063Z,101413.06
2018-06-18T18:14:15.963Z,101413.43
2018-06-18T18:16:42.910Z,101418.50
2018-06-18T18:19:09.786Z,101415.28
2018-06-18T18:21:36.723Z,101426.42
2018-06-18T18:24:03.631Z,101425.19
2018-06-18T18:26:30.622Z,101423.09
2018-06-18T18:28:57.507Z,101424.02
2018-06-18T18:31:24.626Z,101430.25
2018-06-18T18:33:51.549Z,101428.17
2018-06-18T18:36:18.424Z,101427.36
2018-06-18T18:38:45.331Z,101429.06
2018-06-18T18:41:12.239Z,101439.25
2018-06-18T18:43:39.122Z,101451.50
2018-06-18T18:46:06.059Z,101475.71
2018-06-18T18:48:32.985Z,101473.67
2018-06-18T18:50:59.893Z,101467.56
2018-06-18T18:53:26.802Z,101459.85
2018-06-18T18:56:06.180Z,101459.95
2018-06-18T18:59:39.458Z,101454.84
2018-06-18T19:02:06.735Z,101469.84
2018-06-18T19:04:37.682Z,101471.39
2018-06-18T19:07:05.451Z,101477.44
2018-06-18T19:09:36.384Z,101468.16
2018-06-18T19:12:03.612Z,101467.69
2018-06-18T19:14:30.522Z,101465.05
2018-06-18T19:16:57.428Z,101462.23
2018-06-18T19:19:27.543Z,101459.58
2018-06-18T19:21:54.455Z,101461.71
2018-06-18T19:24:21.384Z,101463.87
2018-06-18T19:26:48.515Z,101464.71
2018-06-18T19:29:15.396Z,101457.75
2018-06-18T19:31:42.535Z,101451.28
2018-06-18T19:34:14.046Z,101460.79
2018-06-18T19:36:43.746Z,101469.27
2018-06-18T19:39:11.979Z,101462.97
2018-06-18T19:41:39.116Z,101468.63
2018-06-18T19:44:06.011Z,101475.58
2018-06-18T19:46:37.085Z,101476.90
2018-06-18T19:49:08.287Z,101478.55
2018-06-18T19:51:35.271Z,101481.22
2018-06-18T19:54:02.165Z,101481.56
2018-06-18T19:56:29.126Z,101487.37
2018-06-18T19:58:55.969Z,101491.68
2018-06-18T20:01:22.919Z,101498.31
2018-06-18T20:03:49.815Z,101496.48
2018-06-18T20:06:16.739Z,101491.17
2018-06-18T20:08:43.635Z,101482.87
2018-06-18T20:11:10.539Z,101479.91
2018-06-18T20:13:37.444Z,101485.53
2018-06-18T20:16:04.326Z,101484.53
2018-06-18T20:18:31.248Z,101490.50
2018-06-18T20:20:58.162Z,101489.67
2018-06-18T20:23:26.012Z,101487.69
2018-06-18T20:26:03.410Z,101493.80
2018-06-18T20:28:30.329Z,101499.11
2018-06-18T20:30:57.486Z,101500.77
2018-06-18T20:33:24.431Z,101496.27
2018-06-18T20:35:56.846Z,101502.58
2018-06-18T20:38:23.747Z,101501.08
2018-06-18T20:40:50.687Z,101496.76
2018-06-18T20:43:18.219Z,101497.11
2018-06-18T20:45:45.144Z,101500.08
2018-06-18T20:48:12.167Z,101502.70
2018-06-18T20:50:39.078Z,101504.03
2018-06-18T20:53:05.999Z,101511.18
2018-06-18T20:55:32.891Z,101500.05
2018-06-18T20:57:59.805Z,101508.01
2018-06-18T21:00:26.738Z,101507.84
2018-06-18T21:02:53.739Z,101520.12
2018-06-18T21:05:20.835Z,101519.95
2018-06-18T21:07:47.801Z,101522.73
2018-06-18T21:10:14.662Z,101527.87
2018-06-18T21:12:41.730Z,101527.73
2018-06-18T21:15:08.746Z,101526.55
2018-06-18T21:17:35.707Z,101528.19
2018-06-18T21:20:02.644Z,101530.52
2018-06-18T21:22:29.791Z,101537.81
2018-06-18T21:24:56.715Z,101536.14
2018-06-18T21:27:23.600Z,101533.48
2018-06-18T21:29:50.803Z,101530.52
2018-06-18T21:32:17.694Z,101527.00
2018-06-18T21:34:44.603Z,101538.93
2018-06-18T21:37:11.503Z,101531.15
2018-06-18T21:39:38.393Z,101527.17
2018-06-18T21:42:05.375Z,101531.95
2018-06-18T21:44:34.799Z,101525.84
2018-06-18T21:47:01.715Z,101536.77
2018-06-18T21:49:28.623Z,101542.56
2018-06-18T21:51:55.601Z,101534.12
2018-06-18T21:54:22.526Z,101532.47
2018-06-18T21:56:49.408Z,101538.75
2018-06-18T21:59:16.445Z,101536.11
2018-06-18T22:01:44.723Z,101539.91
2018-06-18T22:04:12.159Z,101543.22
2018-06-18T22:06:39.059Z,101545.56
2018-06-18T22:09:15.179Z,101544.86
2018-06-18T22:11:43.783Z,101543.88
2018-06-18T22:14:10.803Z,101544.02
2018-06-18T22:16:39.416Z,101545.03
2018-06-18T22:19:06.544Z,101540.70
2018-06-18T22:21:33.475Z,101538.22
2018-06-18T22:24:00.555Z,101529.73
2018-06-18T22:26:27.451Z,101537.52
2018-06-18T22:28:54.363Z,101536.85
2018-06-18T22:31:21.299Z,101537.34
2018-06-18T22:33:48.243Z,101538.34
2018-06-18T22:36:15.286Z,101530.53
2018-06-18T22:38:42.315Z,101536.84
2018-06-18T22:41:09.191Z,101532.34
2018-06-18T22:43:36.180Z,101539.31
2018-06-18T22:46:03.074Z,101541.92
2018-06-18T22:48:30.020Z,101538.61
2018-06-18T22:50:56.918Z,101536.30
2018-06-18T22:53:23.819Z,101543.56
2018-06-18T22:55:50.831Z,101550.84
2018-06-18T22:58:17.731Z,101539.88
2018-06-18T23:00:44.684Z,101534.58
2018-06-18T23:03:11.734Z,101538.55
2018-06-18T23:05:38.630Z,101533.91
2018-06-18T23:08:05.623Z,101529.93
2018-06-18T23:10:32.543Z,101537.82
2018-06-18T23:12:59.459Z,101536.45
2018-06-18T23:15:26.419Z,101541.25
2018-06-18T23:17:53.326Z,101540.05
2018-06-18T23:20:20.222Z,101535.70
2018-06-18T23:22:47.231Z,101534.50
2018-06-18T23:25:14.262Z,101533.65
2018-06-18T23:27:41.162Z,101529.66
2018-06-18T23:30:08.199Z,101537.91
2018-06-18T23:32:35.095Z,101532.03
2018-06-18T23:35:02.045Z,101534.18
2018-06-18T23:37:28.955Z,101532.00
2018-06-18T23:39:55.892Z,101530.98
2018-06-18T23:42:23.071Z,101528.80
2018-06-18T23:44:50.214Z,101522.47
2018-06-18T23:47:17.147Z,101524.94
2018-06-18T23:49:44.307Z,101522.75
2018-06-18T23:52:11.243Z,101523.88
2018-06-18T23:54:38.155Z,101521.05
2018-06-18T23:57:05.068Z,101522.67
2018-06-18T23:59:31.974Z,101526.94
